AirNav   Pilot Hours Calculator
 
 365 users online  

50LS Livingston Parish Air Support Heliport
Satsuma, Louisiana, USA

GOING TO SATSUMA?


FAA INFORMATION EFFECTIVE 08 SEPTEMBER 2022

Location

FAA Identifier: 50LS
Lat/Long: 30-28-41.7500N 090-47-37.4000W
30-28.695833N 090-47.623333W
30.4782639,-90.7937222
(estimated)
Elevation: 32 ft. / 10 m (estimated)
From city: 4 miles W of SATSUMA, LA
Time zone: UTC -5 (UTC -6 during Standard Time)
Zip code: 70754

Heliport Operations

Heliport use: Private use. Permission required prior to landing
Activation date: 07/2009
Control tower: no
ARTCC: HOUSTON CENTER
FSS: DE RIDDER FLIGHT SERVICE STATION
Attendance: UNATNDD
Wind indicator: yes
Segmented circle: yes

Heliport Communications

WX ASOS at BTR (19 nm W): PHONE 225-354-2138
WX AWOS-3PT at HDC (20 nm E): PHONE 985-277-5670
WX AWOS-3PT at REG (20 nm S): 121.175 (225-644-4014)

Nearby radio navigation aids

VOR radial/distance  VOR name  Freq  Var
RQRr334/25.7RESERVE VOR/DME110.8002E
LSUr085/25.9FIGHTING TIGER VORTAC116.5006E

Heliport Services

Runway Information

Helipad H1

Dimensions: 40 x 40 ft. / 12 x 12 m
Surface: concrete
Traffic pattern: leftleft

Heliport Ownership and Management from official FAA records

Ownership: Privately-owned
Owner: LIVINGSTON PARISH SHERIFF'S OFFICE
29130 S SATSUMA RD
LIVINGSTON, LA 70754
Phone 225-686-2241
Manager: CPT MIKE ERWIN
PO BOX 850
LIVINGSTON, LA 70754
Phone 225-686-2241

Heliport Operational Statistics

Aircraft based on the field: 3
Single engine airplanes: 3
    

Additional Remarks

FOR CD CTC BATON ROUGE APCH AT 225-354-2142, WHEN APCH CLSD CTC HOUSTON ARTCC AT 281-230-5622.

Instrument Procedures

There are no published instrument procedures at 50LS.

Some nearby airports with instrument procedures:

KBTR - Baton Rouge Metropolitan Airport, Ryan Field (19 nm W)
KHDC - Hammond Northshore Regional Airport (20 nm E)
KREG - Louisiana Regional Airport (20 nm S)
KAPS - Port of South Louisiana Executive Regional Airport (26 nm SE)
KHZR - False River Regional Airport (38 nm W)
 
Loc | Ops | Rwys | IFR | FBO | Links
Com | Nav | Svcs | Stats | Notes
Aerial photo
No photo
 
Sectional chart

 
Airport distance calculator
Flying to Livingston Parish Air Support Heliport? Find the distance to fly.

From to 50LS

Sunrise and sunset
Times for 02-Oct-2022
 Local
(UTC-5)
 Zulu
(UTC)
Morning civil twilight06:3411:34
Sunrise06:5811:58
Sunset18:4723:47
Evening civil twilight19:1100:11

Current date and time
Zulu (UTC)  02-Oct-2022 09:12:58
Local (UTC-5)  02-Oct-2022 04:12:58
 
METAR
KBTR 
19nm W 
020853Z AUTO 00000KT 10SM CLR 12/10 A3004 RMK AO2 SLP172 T01220100 50002
KHDC 
20nm E 
020858Z AUTO 00000KT 10SM CLR 11/10 A3004 RMK AO2
KREG 
20nm S 
020855Z AUTO 00000KT 10SM CLR 13/12 A3003 RMK AO2 T01270118
KAPS 
26nm SE 
020858Z AUTO 00000KT CLR 12/09 A3003 RMK AO2 PWINO
TAF
KBTR 
19nm W 
020521Z 0206/0306 VRB04KT P6SM SKC FM021800 01008KT P6SM FEW250 FM030000 VRB03KT P6SM SKC
KHDC 
20nm E 
020521Z 0206/0306 00000KT P6SM SKC FM021600 35006KT P6SM SKC FM022300 00000KT P6SM SKC
NOTAMs
Click for the latest NOTAMs
NOTAMs are issued by the DoD/FAA and will open in a separate window not controlled by AirNav.

 

 
 

Would you like to see your business listed on this page?

 If your business provides an interesting product or service to pilots, flight crews, aircraft, or users of the Livingston Parish Air Support Heliport, you should consider listing it here.  To start the listing process, click on the button below
 
Add a business
 

Other Pages about Livingston Parish Air Support Heliport

Update a link
 
Copyright © AirNav, LLC. All rights reserved. Privacy Policy  Contact